createdAt,value
2019-05-20T00:19:10.096Z,9.20
2019-05-20T00:39:21.835Z,12.30
2019-05-20T00:59:21.331Z,13.37
2019-05-20T01:19:33.162Z,11.88
2019-05-20T01:39:32.640Z,13.14
2019-05-20T01:59:42.075Z,10.25
2019-05-20T02:19:51.818Z,8.52
2019-05-20T02:40:01.259Z,9.33
2019-05-20T03:00:10.927Z,8.77
2019-05-20T03:20:20.490Z,9.18
2019-05-20T03:40:29.936Z,8.81
2019-05-20T04:00:39.463Z,8.38
2019-05-20T04:20:49.098Z,10.15
2019-05-20T04:41:00.931Z,8.69
2019-05-20T05:01:00.588Z,10.62
2019-05-20T05:21:10.592Z,9.00
2019-05-20T05:41:20.161Z,8.27
2019-05-20T06:01:32.167Z,8.77
2019-05-20T06:21:31.857Z,8.74
2019-05-20T06:41:41.494Z,8.01
2019-05-20T07:01:50.914Z,7.27
2019-05-20T07:22:00.510Z,6.67
2019-05-20T07:42:10.036Z,6.26
2019-05-20T08:02:24.191Z,7.91
2019-05-20T08:22:23.644Z,7.28
2019-05-20T08:42:33.225Z,6.10
2019-05-20T09:02:42.936Z,9.59
2019-05-20T09:22:52.479Z,6.78
2019-05-20T09:43:02.205Z,9.27
2019-05-20T10:03:11.778Z,6.37
2019-05-20T10:23:25.835Z,8.21
2019-05-20T10:43:26.704Z,6.33
2019-05-20T11:03:26.208Z,6.99
2019-05-20T11:23:40.198Z,7.43
2019-05-20T11:43:39.704Z,7.75
2019-05-20T12:03:49.298Z,9.00
2019-05-20T12:23:58.918Z,7.33
2019-05-20T12:44:12.644Z,7.23
2019-05-20T13:04:17.341Z,8.14
2019-05-20T13:24:27.862Z,6.88
2019-05-20T13:44:29.762Z,8.09
2019-05-20T14:04:29.153Z,6.63
2019-05-20T14:24:38.724Z,5.97
2019-05-20T14:44:50.583Z,6.23
2019-05-20T15:04:50.349Z,6.93
2019-05-20T15:25:00.000Z,6.94
2019-05-20T15:45:09.502Z,7.36
2019-05-20T16:05:18.950Z,8.21
2019-05-20T16:25:30.954Z,9.58
2019-05-20T16:45:30.400Z,9.56
2019-05-20T17:05:40.196Z,9.68
2019-05-20T17:25:50.776Z,8.87
2019-05-20T17:45:58.911Z,8.78
2019-05-20T18:06:08.646Z,8.19
2019-05-20T18:26:18.192Z,9.35
2019-05-20T18:46:27.670Z,10.09
2019-05-20T19:06:37.090Z,8.72
2019-05-20T19:26:46.612Z,7.50
2019-05-20T19:46:58.392Z,7.50
2019-05-20T20:07:00.178Z,6.83
2019-05-20T20:26:59.621Z,7.69
2019-05-20T20:47:11.428Z,7.31
2019-05-20T21:07:10.934Z,7.23
2019-05-20T21:27:22.727Z,5.49
2019-05-20T21:47:22.249Z,6.08
2019-05-20T22:07:31.948Z,6.35
2019-05-20T22:27:41.495Z,7.16
2019-05-20T22:47:51.167Z,7.11
2019-05-20T23:08:00.599Z,9.97
2019-05-20T23:28:10.260Z,8.09
2019-05-20T23:48:22.072Z,9.02
